createdAt,value
2022-09-25T00:01:24.681Z,101544.38
2022-09-25T00:03:51.248Z,101551.69
2022-09-25T00:06:20.456Z,101551.91
2022-09-25T00:08:47.025Z,101555.50
2022-09-25T00:11:17.202Z,101557.03
2022-09-25T00:13:45.759Z,101561.69
2022-09-25T00:16:15.154Z,101564.91
2022-09-25T00:19:01.238Z,101561.34
2022-09-25T00:21:30.866Z,101566.47
2022-09-25T00:24:03.097Z,101570.63
2022-09-25T00:26:31.370Z,101558.03
2022-09-25T00:29:00.442Z,101556.47
2022-09-25T00:31:28.743Z,101559.31
2022-09-25T00:33:59.512Z,101551.94
2022-09-25T00:36:26.209Z,101559.94
2022-09-25T00:38:53.044Z,101556.22
2022-09-25T00:41:21.594Z,101557.41
2022-09-25T00:43:51.116Z,101562.66
2022-09-25T00:46:20.975Z,101561.59
2022-09-25T00:48:56.197Z,101561.59
2022-09-25T00:51:29.725Z,101572.81
2022-09-25T00:54:03.733Z,101563.38
2022-09-25T00:56:37.574Z,101568.84
2022-09-25T00:59:07.211Z,101565.06
2022-09-25T01:01:33.799Z,101566.00
2022-09-25T01:04:00.649Z,101560.63
2022-09-25T01:06:27.779Z,101563.25
2022-09-25T01:08:55.518Z,101569.91
2022-09-25T01:11:21.998Z,101562.78
2022-09-25T01:13:49.116Z,101571.13
2022-09-25T01:16:38.597Z,101572.91
2022-09-25T01:19:26.464Z,101578.25
2022-09-25T01:21:59.352Z,101572.06
2022-09-25T01:24:49.481Z,101572.66
2022-09-25T01:27:21.999Z,101575.16
2022-09-25T01:30:11.200Z,101569.91
2022-09-25T01:32:55.658Z,101581.50
2022-09-25T01:35:40.929Z,101581.50
2022-09-25T01:38:22.915Z,101585.78
2022-09-25T01:40:56.438Z,101582.69
2022-09-25T01:43:31.104Z,101573.34
2022-09-25T01:46:05.859Z,101583.72
2022-09-25T01:48:34.793Z,101581.81
2022-09-25T01:51:07.082Z,101573.06
2022-09-25T01:53:42.538Z,101589.97
2022-09-25T01:56:18.860Z,101578.63
2022-09-25T01:58:54.671Z,101585.69
2022-09-25T02:01:30.579Z,101586.97
2022-09-25T02:04:03.461Z,101582.06
2022-09-25T02:06:33.061Z,101579.13
2022-09-25T02:09:04.652Z,101581.72
2022-09-25T02:11:39.797Z,101578.72
2022-09-25T02:14:18.285Z,101579.88
2022-09-25T02:16:50.120Z,101579.19
2022-09-25T02:19:35.705Z,101571.31
2022-09-25T02:22:07.993Z,101568.56
2022-09-25T02:24:58.933Z,101578.34
2022-09-25T02:27:28.301Z,101571.38
2022-09-25T02:29:56.369Z,101584.25
2022-09-25T02:32:28.761Z,101582.94
2022-09-25T02:34:57.736Z,101587.69
2022-09-25T02:37:24.270Z,101577.47
2022-09-25T02:39:54.392Z,101588.09
2022-09-25T02:42:39.948Z,101587.19
2022-09-25T02:45:12.088Z,101583.00
2022-09-25T02:48:05.544Z,101579.44
2022-09-25T02:50:47.224Z,101568.72
2022-09-25T02:53:21.695Z,101566.31
2022-09-25T02:55:58.496Z,101557.72
2022-09-25T02:58:35.425Z,101562.56
2022-09-25T03:01:05.777Z,101567.78
2022-09-25T03:03:34.958Z,101562.78
2022-09-25T03:06:03.521Z,101564.19
2022-09-25T03:08:39.104Z,101553.88
2022-09-25T03:11:07.865Z,101568.25
2022-09-25T03:13:35.006Z,101564.88
2022-09-25T03:16:36.059Z,101575.16
2022-09-25T03:19:02.767Z,101571.81
2022-09-25T03:21:29.293Z,101571.66
2022-09-25T03:23:58.763Z,101568.69
2022-09-25T03:26:27.223Z,101567.50
2022-09-25T03:28:54.176Z,101571.38
2022-09-25T03:31:20.806Z,101577.66
2022-09-25T03:33:48.965Z,101569.41
2022-09-25T03:36:21.451Z,101570.44
2022-09-25T03:38:51.342Z,101571.13
2022-09-25T03:41:21.134Z,101565.66
2022-09-25T03:43:51.217Z,101571.38
2022-09-25T03:46:20.795Z,101570.97
2022-09-25T03:48:47.458Z,101570.00
2022-09-25T03:51:14.277Z,101571.06
2022-09-25T03:53:41.084Z,101577.53
2022-09-25T03:56:11.336Z,101576.31
2022-09-25T03:58:38.589Z,101570.47
2022-09-25T04:01:06.258Z,101567.41
2022-09-25T04:03:33.992Z,101578.28
2022-09-25T04:06:04.786Z,101577.66
2022-09-25T04:08:33.062Z,101573.88
2022-09-25T04:11:00.409Z,101573.88
2022-09-25T04:13:32.082Z,101566.13
2022-09-25T04:16:01.183Z,101567.41
2022-09-25T04:18:31.723Z,101561.25
2022-09-25T04:21:03.306Z,101564.22
2022-09-25T04:23:29.814Z,101558.53
2022-09-25T04:25:57.033Z,101562.63
2022-09-25T04:28:24.148Z,101555.34
2022-09-25T04:30:51.081Z,101561.84
2022-09-25T04:33:36.648Z,101564.22
2022-09-25T04:36:04.476Z,101562.94
2022-09-25T04:38:32.294Z,101563.38
2022-09-25T04:41:00.188Z,101564.28
2022-09-25T04:43:32.063Z,101568.00
2022-09-25T04:46:02.545Z,101560.66
2022-09-25T04:48:29.628Z,101563.38
2022-09-25T04:50:56.515Z,101568.25
2022-09-25T04:53:22.977Z,101566.84
2022-09-25T04:55:49.472Z,101563.28
2022-09-25T04:58:15.950Z,101562.91
2022-09-25T05:00:42.651Z,101557.81
2022-09-25T05:03:09.404Z,101550.34
2022-09-25T05:05:36.081Z,101555.38
2022-09-25T05:08:03.369Z,101545.97
2022-09-25T05:10:32.640Z,101550.41
2022-09-25T05:13:03.989Z,101549.84
2022-09-25T05:15:32.114Z,101553.19
2022-09-25T05:18:01.530Z,101553.59
2022-09-25T05:20:28.338Z,101538.31
2022-09-25T05:22:57.879Z,101548.13
2022-09-25T05:25:25.776Z,101556.44
2022-09-25T05:27:55.677Z,101550.28
2022-09-25T05:30:22.776Z,101542.78
2022-09-25T05:32:53.290Z,101553.25
2022-09-25T05:35:22.061Z,101547.56
2022-09-25T05:37:48.591Z,101539.38
2022-09-25T05:40:17.662Z,101543.59
2022-09-25T05:42:45.003Z,101542.31
2022-09-25T05:45:12.530Z,101550.97
2022-09-25T05:47:40.006Z,101543.22
2022-09-25T05:50:07.754Z,101547.47
2022-09-25T05:52:35.358Z,101551.25
2022-09-25T05:55:03.365Z,101551.25
2022-09-25T05:57:34.180Z,101561.78
2022-09-25T06:00:01.692Z,101557.88
2022-09-25T06:02:38.305Z,101559.13
2022-09-25T06:05:05.258Z,101562.69
2022-09-25T06:07:31.746Z,101560.09
2022-09-25T06:09:58.238Z,101564.75
2022-09-25T06:12:24.718Z,101573.88
2022-09-25T06:14:52.348Z,101566.31
2022-09-25T06:17:19.035Z,101569.63
2022-09-25T06:19:45.870Z,101562.09
2022-09-25T06:22:12.366Z,101566.22
2022-09-25T06:24:38.916Z,101559.34
2022-09-25T06:27:08.881Z,101570.72
2022-09-25T06:29:36.023Z,101565.19
2022-09-25T06:32:03.464Z,101564.53
2022-09-25T06:34:29.990Z,101564.94
2022-09-25T06:36:56.474Z,101567.47
2022-09-25T06:39:22.975Z,101565.13
2022-09-25T06:41:52.855Z,101572.84
2022-09-25T06:44:22.371Z,101565.91
2022-09-25T06:46:50.156Z,101565.28
2022-09-25T06:49:16.762Z,101566.09
2022-09-25T06:51:43.250Z,101564.41
2022-09-25T06:54:09.908Z,101570.63
2022-09-25T06:56:36.454Z,101575.28
2022-09-25T06:59:03.027Z,101574.47
2022-09-25T07:01:29.632Z,101581.75
2022-09-25T07:03:56.170Z,101577.31
2022-09-25T07:06:26.799Z,101582.50
2022-09-25T07:08:53.303Z,101570.50
2022-09-25T07:11:22.044Z,101590.41
2022-09-25T07:13:54.861Z,101585.56
2022-09-25T07:16:29.626Z,101578.81
2022-09-25T07:19:03.985Z,101583.13
2022-09-25T07:21:32.069Z,101577.06
2022-09-25T07:23:58.814Z,101588.78
2022-09-25T07:26:28.341Z,101587.84
2022-09-25T07:28:56.483Z,101579.81
2022-09-25T07:31:26.158Z,101596.59
2022-09-25T07:33:52.868Z,101583.50
2022-09-25T07:36:19.867Z,101590.81
2022-09-25T07:38:53.405Z,101584.03
2022-09-25T07:41:22.599Z,101582.66
2022-09-25T07:44:06.294Z,101586.47
2022-09-25T07:46:43.418Z,101583.88
2022-09-25T07:49:09.984Z,101583.78
2022-09-25T07:51:36.505Z,101578.09
2022-09-25T07:54:03.036Z,101586.00
2022-09-25T07:56:29.533Z,101584.84
2022-09-25T07:58:56.003Z,101587.31
2022-09-25T08:01:22.552Z,101587.00
2022-09-25T08:03:49.315Z,101583.56
2022-09-25T08:06:15.854Z,101577.75
2022-09-25T08:08:44.058Z,101586.34
2022-09-25T08:11:13.086Z,101580.19
2022-09-25T08:13:41.049Z,101580.75
2022-09-25T08:16:13.909Z,101578.16
2022-09-25T08:18:42.646Z,101586.91
2022-09-25T08:21:10.524Z,101576.41
2022-09-25T08:23:37.105Z,101578.00
2022-09-25T08:26:03.646Z,101572.28
2022-09-25T08:28:30.128Z,101570.38
2022-09-25T08:30:59.493Z,101576.94
2022-09-25T08:33:26.271Z,101580.88
2022-09-25T08:36:00.993Z,101582.78
2022-09-25T08:38:28.628Z,101573.84
2022-09-25T08:41:02.034Z,101576.88
2022-09-25T08:43:30.181Z,101575.31
2022-09-25T08:46:19.086Z,101575.75
2022-09-25T08:49:02.082Z,101578.75
2022-09-25T08:51:45.628Z,101586.50
2022-09-25T08:54:22.427Z,101585.31
2022-09-25T08:56:51.536Z,101576.47
2022-09-25T08:59:40.506Z,101581.84
2022-09-25T09:02:23.345Z,101579.31
2022-09-25T09:04:56.247Z,101583.97
2022-09-25T09:07:28.095Z,101582.75
2022-09-25T09:10:08.457Z,101584.91
2022-09-25T09:12:48.387Z,101589.28
2022-09-25T09:15:23.752Z,101580.41
2022-09-25T09:17:50.297Z,101581.13
2022-09-25T09:20:27.679Z,101584.72
2022-09-25T09:22:57.577Z,101563.94
2022-09-25T09:25:48.187Z,101569.59
2022-09-25T09:28:48.315Z,101579.53
2022-09-25T09:31:51.583Z,101569.97
2022-09-25T09:35:00.927Z,101571.00
2022-09-25T09:37:51.225Z,101565.94
2022-09-25T09:40:51.759Z,101556.38
2022-09-25T09:43:57.775Z,101558.22
2022-09-25T09:46:48.608Z,101559.38
2022-09-25T09:49:22.085Z,101565.38
2022-09-25T09:52:01.367Z,101558.56
2022-09-25T09:54:38.553Z,101553.72
2022-09-25T09:57:12.945Z,101559.88
2022-09-25T09:59:49.048Z,101542.53
2022-09-25T10:02:38.040Z,101551.03
2022-09-25T10:05:12.808Z,101548.13
2022-09-25T10:07:42.266Z,101547.44
2022-09-25T10:10:16.912Z,101548.72
2022-09-25T10:12:54.960Z,101537.50
2022-09-25T10:15:30.094Z,101542.50
2022-09-25T10:18:00.846Z,101542.03
2022-09-25T10:20:39.553Z,101548.59
2022-09-25T10:23:06.494Z,101544.81
2022-09-25T10:25:39.047Z,101545.25
2022-09-25T10:28:37.835Z,101543.34
2022-09-25T10:31:08.841Z,101537.47
2022-09-25T10:33:35.594Z,101539.47
2022-09-25T10:36:02.265Z,101534.50
2022-09-25T10:38:29.298Z,101535.88
2022-09-25T10:41:09.307Z,101538.69
2022-09-25T10:43:50.936Z,101539.63
2022-09-25T10:46:47.034Z,101530.66
2022-09-25T10:50:04.042Z,101539.56
2022-09-25T10:52:46.017Z,101537.38
2022-09-25T10:55:34.970Z,101547.16
2022-09-25T10:58:10.499Z,101541.47
2022-09-25T11:00:41.883Z,101531.53
2022-09-25T11:03:20.331Z,101525.41
2022-09-25T11:06:01.446Z,101533.53
2022-09-25T11:08:30.436Z,101524.47
2022-09-25T11:10:59.145Z,101535.00
2022-09-25T11:13:36.813Z,101526.63
2022-09-25T11:16:10.286Z,101525.28
2022-09-25T11:18:51.134Z,101529.22
2022-09-25T11:21:43.061Z,101530.44
2022-09-25T11:24:23.697Z,101537.09
2022-09-25T11:27:31.227Z,101523.59
2022-09-25T11:30:10.503Z,101521.72
2022-09-25T11:32:54.450Z,101519.91
2022-09-25T11:35:26.748Z,101511.28
2022-09-25T11:38:44.598Z,101513.50
2022-09-25T11:41:22.966Z,101511.34
2022-09-25T11:43:57.932Z,101509.66
2022-09-25T11:46:35.437Z,101513.44
2022-09-25T11:49:22.413Z,101513.41
2022-09-25T11:52:20.224Z,101501.94
2022-09-25T11:55:07.982Z,101499.03
2022-09-25T11:57:43.609Z,101500.81
2022-09-25T12:00:20.177Z,101490.59
2022-09-25T12:03:13.189Z,101489.75
2022-09-25T12:06:05.185Z,101482.28
2022-09-25T12:09:07.025Z,101489.16
2022-09-25T12:11:50.473Z,101494.34
2022-09-25T12:14:34.476Z,101491.31
2022-09-25T12:17:12.738Z,101486.34
2022-09-25T12:19:50.005Z,101486.16
2022-09-25T12:22:26.127Z,101474.81
2022-09-25T12:24:55.500Z,101484.50
2022-09-25T12:27:40.649Z,101484.19
2022-09-25T12:30:16.559Z,101485.00
2022-09-25T12:33:24.410Z,101493.56
2022-09-25T12:36:22.483Z,101474.41
2022-09-25T12:39:08.476Z,101476.63
2022-09-25T12:41:50.722Z,101468.06
2022-09-25T12:44:27.597Z,101472.13
2022-09-25T12:47:01.850Z,101461.09
2022-09-25T12:50:00.416Z,101463.91
2022-09-25T12:52:34.717Z,101464.72
2022-09-25T12:55:13.598Z,101461.22
2022-09-25T12:57:50.118Z,101446.38
2022-09-25T13:00:21.263Z,101448.34
2022-09-25T13:03:11.233Z,101452.50
2022-09-25T13:05:45.300Z,101449.19
2022-09-25T13:08:27.013Z,101443.16
2022-09-25T13:10:55.899Z,101441.78
2022-09-25T13:13:26.963Z,101435.97
2022-09-25T13:15:57.055Z,101425.75
2022-09-25T13:18:27.101Z,101424.91
2022-09-25T13:20:55.594Z,101421.31
2022-09-25T13:23:35.946Z,101417.63
2022-09-25T13:26:09.759Z,101414.91
2022-09-25T13:28:40.391Z,101418.72
2022-09-25T13:31:12.125Z,101418.72
2022-09-25T13:33:46.712Z,101417.63
2022-09-25T13:36:39.589Z,101415.16
2022-09-25T13:39:36.693Z,101415.69
2022-09-25T13:42:07.550Z,101409.53
2022-09-25T13:45:00.906Z,101399.81
2022-09-25T13:47:27.307Z,101404.19
2022-09-25T13:50:11.772Z,101403.09
2022-09-25T13:52:41.257Z,101398.13
2022-09-25T13:55:19.391Z,101396.44
2022-09-25T13:57:55.738Z,101395.59
2022-09-25T14:00:23.229Z,101392.00
2022-09-25T14:02:50.352Z,101379.81
2022-09-25T14:05:21.846Z,101388.13
2022-09-25T14:07:50.733Z,101380.97
2022-09-25T14:10:17.963Z,101379.19
2022-09-25T14:12:48.061Z,101385.88
2022-09-25T14:15:35.371Z,101380.97
2022-09-25T14:18:08.297Z,101375.44
2022-09-25T14:20:44.323Z,101382.69
2022-09-25T14:23:24.558Z,101387.44
2022-09-25T14:26:08.671Z,101381.44
2022-09-25T14:28:47.473Z,101375.66
2022-09-25T14:31:29.268Z,101369.03
2022-09-25T14:34:12.963Z,101370.69
2022-09-25T14:37:00.381Z,101364.34
2022-09-25T14:39:48.644Z,101374.31
2022-09-25T14:42:37.436Z,101371.81
2022-09-25T14:45:25.330Z,101366.53
2022-09-25T14:47:55.897Z,101359.09
2022-09-25T14:50:26.257Z,101361.84
2022-09-25T14:52:57.996Z,101367.94
2022-09-25T14:55:28.817Z,101361.00
2022-09-25T14:57:58.109Z,101367.38
2022-09-25T15:00:24.845Z,101373.19
2022-09-25T15:02:55.120Z,101364.91
2022-09-25T15:05:21.605Z,101363.50
2022-09-25T15:07:48.125Z,101363.81
2022-09-25T15:10:41.045Z,101364.06
2022-09-25T15:13:19.834Z,101360.75
2022-09-25T15:16:14.171Z,101361.59
2022-09-25T15:18:42.876Z,101363.25
2022-09-25T15:21:33.483Z,101366.56
2022-09-25T15:24:05.031Z,101361.88
2022-09-25T15:26:33.260Z,101358.53
2022-09-25T15:28:59.959Z,101353.84
2022-09-25T15:31:26.590Z,101362.97
2022-09-25T15:34:24.220Z,101356.31
2022-09-25T15:36:51.480Z,101349.72
2022-09-25T15:39:25.976Z,101350.81
2022-09-25T15:41:52.587Z,101355.81
2022-09-25T15:44:24.664Z,101348.59
2022-09-25T15:46:54.180Z,101346.94
2022-09-25T15:49:27.944Z,101343.88
2022-09-25T15:52:00.197Z,101347.22
2022-09-25T15:54:38.389Z,101344.16
2022-09-25T15:57:13.628Z,101345.81
2022-09-25T16:00:05.423Z,101343.00
2022-09-25T16:03:00.011Z,101341.22
2022-09-25T16:05:32.784Z,101341.44
2022-09-25T16:08:23.994Z,101339.50
2022-09-25T16:11:05.065Z,101336.16
2022-09-25T16:13:32.788Z,101339.00
2022-09-25T16:15:59.529Z,101335.66
2022-09-25T16:18:36.191Z,101335.09
2022-09-25T16:21:14.660Z,101336.75
2022-09-25T16:23:42.981Z,101336.50
2022-09-25T16:26:22.451Z,101355.13
2022-09-25T16:28:55.739Z,101352.13
2022-09-25T16:31:24.978Z,101347.47
2022-09-25T16:33:55.913Z,101346.66
2022-09-25T16:36:24.681Z,101348.59
2022-09-25T16:39:12.912Z,101353.00
2022-09-25T16:41:46.022Z,101351.63
2022-09-25T16:44:25.196Z,101348.31
2022-09-25T16:46:52.172Z,101345.28
2022-09-25T16:49:22.094Z,101353.00
2022-09-25T16:51:51.160Z,101347.22
2022-09-25T16:54:19.984Z,101348.06
2022-09-25T16:56:48.000Z,101347.22
2022-09-25T16:59:22.056Z,101338.38
2022-09-25T17:01:51.516Z,101342.53
2022-09-25T17:04:23.761Z,101344.72
2022-09-25T17:06:50.349Z,101348.03
2022-09-25T17:09:17.940Z,101354.13
2022-09-25T17:11:46.764Z,101354.13
2022-09-25T17:14:24.396Z,101350.78
2022-09-25T17:16:52.539Z,101351.91
2022-09-25T17:19:20.155Z,101350.50
2022-09-25T17:21:50.053Z,101340.84
2022-09-25T17:24:18.467Z,101345.81
2022-09-25T17:26:45.312Z,101334.22
2022-09-25T17:29:12.128Z,101327.56
2022-09-25T17:31:39.657Z,101327.50
2022-09-25T17:34:16.157Z,101327.53
2022-09-25T17:36:42.812Z,101321.75
2022-09-25T17:39:09.549Z,101321.44
2022-09-25T17:41:37.033Z,101312.06
2022-09-25T17:44:04.657Z,101315.34
2022-09-25T17:46:35.924Z,101317.56
2022-09-25T17:49:03.569Z,101314.22
2022-09-25T17:51:30.522Z,101305.13
2022-09-25T17:53:59.219Z,101306.50
2022-09-25T17:56:29.422Z,101301.50
2022-09-25T17:58:57.467Z,101302.59
2022-09-25T18:01:27.950Z,101309.19
2022-09-25T18:03:56.598Z,101308.06
2022-09-25T18:06:24.397Z,101310.81
2022-09-25T18:08:51.741Z,101305.25
2022-09-25T18:11:18.276Z,101302.75
2022-09-25T18:13:45.298Z,101302.47
2022-09-25T18:16:21.702Z,101307.41
2022-09-25T18:19:07.035Z,101309.03
2022-09-25T18:21:56.550Z,101298.84
2022-09-25T18:24:23.197Z,101292.97
2022-09-25T18:26:53.608Z,101298.44
2022-09-25T18:29:21.570Z,101298.47
2022-09-25T18:31:48.736Z,101299.81
2022-09-25T18:34:15.965Z,101307.25
2022-09-25T18:36:43.024Z,101302.41
2022-09-25T18:39:10.398Z,101303.00
2022-09-25T18:41:38.152Z,101289.97
2022-09-25T18:44:07.285Z,101296.63
2022-09-25T18:46:35.791Z,101295.78
2022-09-25T18:49:02.472Z,101291.59
2022-09-25T18:51:28.968Z,101288.34
2022-09-25T18:53:55.929Z,101291.38
2022-09-25T18:56:22.515Z,101296.50
2022-09-25T18:58:49.793Z,101289.97
2022-09-25T19:01:16.379Z,101284.69
2022-09-25T19:03:43.079Z,101278.16
2022-09-25T19:06:09.900Z,101271.97
2022-09-25T19:08:36.394Z,101269.31
2022-09-25T19:11:02.985Z,101262.66
2022-09-25T19:13:30.140Z,101268.44
2022-09-25T19:15:58.594Z,101254.69
2022-09-25T19:18:25.150Z,101264.28
2022-09-25T19:20:54.210Z,101261.47
2022-09-25T19:23:22.163Z,101267.25
2022-09-25T19:25:53.573Z,101264.47
2022-09-25T19:28:23.544Z,101255.31
2022-09-25T19:31:03.303Z,101265.50
2022-09-25T19:33:33.276Z,101268.84
2022-09-25T19:36:02.869Z,101257.78
2022-09-25T19:38:35.633Z,101267.06
2022-09-25T19:41:02.195Z,101267.25
2022-09-25T19:43:28.785Z,101258.81
2022-09-25T19:45:56.249Z,101265.34
2022-09-25T19:48:23.989Z,101259.28
2022-09-25T19:50:50.582Z,101254.31
2022-09-25T19:53:18.831Z,101254.84
2022-09-25T19:55:54.717Z,101244.25
2022-09-25T19:58:23.564Z,101245.94
2022-09-25T20:00:50.944Z,101252.75
2022-09-25T20:03:17.989Z,101239.28
2022-09-25T20:05:44.566Z,101233.25
2022-09-25T20:08:11.523Z,101231.81
2022-09-25T20:10:38.083Z,101230.38
2022-09-25T20:13:06.119Z,101226.50
2022-09-25T20:15:33.665Z,101223.53
2022-09-25T20:18:00.503Z,101217.16
2022-09-25T20:20:29.244Z,101217.09
2022-09-25T20:22:56.403Z,101213.25
2022-09-25T20:25:23.451Z,101204.47
2022-09-25T20:27:51.185Z,101199.16
2022-09-25T20:30:18.858Z,101203.00
2022-09-25T20:32:45.885Z,101202.91
2022-09-25T20:35:12.480Z,101196.66
2022-09-25T20:37:39.186Z,101187.78
2022-09-25T20:40:06.886Z,101184.19
2022-09-25T20:42:33.902Z,101190.09
2022-09-25T20:45:00.471Z,101186.75
2022-09-25T20:47:33.345Z,101193.84
2022-09-25T20:50:00.795Z,101187.78
2022-09-25T20:52:28.243Z,101180.72
2022-09-25T20:54:56.323Z,101176.94
2022-09-25T20:57:22.881Z,101183.84
2022-09-25T20:59:49.419Z,101176.94
2022-09-25T21:02:15.961Z,101177.72
2022-09-25T21:04:44.849Z,101177.72
2022-09-25T21:07:15.996Z,101171.06
2022-09-25T21:09:43.600Z,101166.41
2022-09-25T21:12:10.164Z,101157.84
2022-09-25T21:14:36.978Z,101161.38
2022-09-25T21:17:03.810Z,101165.19
2022-09-25T21:19:31.693Z,101153.69
2022-09-25T21:21:58.189Z,101163.03
2022-09-25T21:24:24.728Z,101155.25
2022-09-25T21:26:51.272Z,101149.47
2022-09-25T21:29:18.584Z,101153.38
2022-09-25T21:31:49.962Z,101153.31
2022-09-25T21:34:17.754Z,101153.69
2022-09-25T21:36:44.276Z,101149.09
2022-09-25T21:39:11.632Z,101152.50
2022-09-25T21:41:38.293Z,101144.97
2022-09-25T21:44:07.667Z,101155.94
2022-09-25T21:46:34.831Z,101155.50
2022-09-25T21:49:03.922Z,101149.06
2022-09-25T21:51:33.193Z,101153.31
2022-09-25T21:54:00.978Z,101148.84
2022-09-25T21:56:30.329Z,101157.34
2022-09-25T21:58:57.928Z,101157.69
2022-09-25T22:01:29.249Z,101158.47
2022-09-25T22:03:57.696Z,101152.94
2022-09-25T22:06:27.201Z,101145.41
2022-09-25T22:08:59.587Z,101149.16
2022-09-25T22:11:26.985Z,101142.66
2022-09-25T22:13:55.827Z,101143.09
2022-09-25T22:16:28.311Z,101134.28
2022-09-25T22:19:19.339Z,101129.38
2022-09-25T22:21:47.912Z,101121.97
2022-09-25T22:24:14.859Z,101117.78
2022-09-25T22:26:43.431Z,101111.75
2022-09-25T22:29:10.635Z,101105.97
2022-09-25T22:31:38.476Z,101099.31
2022-09-25T22:34:08.007Z,101109.75
2022-09-25T22:36:38.730Z,101103.19
2022-09-25T22:39:06.359Z,101101.13
2022-09-25T22:41:33.126Z,101099.53
2022-09-25T22:44:00.909Z,101097.56
2022-09-25T22:46:28.427Z,101100.13
2022-09-25T22:48:55.158Z,101093.81
2022-09-25T22:51:23.822Z,101095.72
2022-09-25T22:53:51.269Z,101087.75
2022-09-25T22:56:20.981Z,101081.66
2022-09-25T22:58:50.339Z,101085.19
2022-09-25T23:01:20.980Z,101074.75
2022-09-25T23:03:47.567Z,101076.09
2022-09-25T23:06:14.389Z,101068.00
2022-09-25T23:08:40.929Z,101067.81
2022-09-25T23:11:08.453Z,101050.75
2022-09-25T23:13:36.478Z,101060.50
2022-09-25T23:16:07.981Z,101049.69
2022-09-25T23:18:36.522Z,101044.44
2022-09-25T23:21:04.097Z,101042.78
2022-09-25T23:23:30.539Z,101022.72
2022-09-25T23:26:01.925Z,101029.50
2022-09-25T23:28:28.494Z,101018.81
2022-09-25T23:30:55.037Z,101017.00
2022-09-25T23:33:21.544Z,101004.06
2022-09-25T23:35:48.008Z,101002.94
2022-09-25T23:38:14.452Z,100984.84
2022-09-25T23:40:41.054Z,100984.94
2022-09-25T23:43:07.627Z,100981.16
2022-09-25T23:45:34.208Z,100979.63
2022-09-25T23:48:00.818Z,100971.03
2022-09-25T23:50:27.298Z,100977.28
2022-09-25T23:52:53.762Z,100973.00
2022-09-25T23:55:20.312Z,100978.72
2022-09-25T23:57:46.840Z,100970.78
